Time;durP1;ratioP1;P1;durP2;ratioP2;P2;SDS_P1;SDS_P2;PMS_P1;PMS_P2;Temp;Humidity;BMP_temperature;BMP_pressure;BME280_temperature;BME280_humidity;BME280_pressure;Samples;Min_cycle;Max_cycle;Signal;HPM_P1;HPM_P2
2023/06/01 00:01:49;;;;;;;1999.90;999.90;;;12.60;99.90;;;;;;6286916;22;20004;-77
2023/06/01 00:04:14;;;;;;;1999.90;999.90;;;12.60;99.90;;;;;;6314878;22;20011;-78
2023/06/01 00:06:40;;;;;;;1999.90;999.90;;;12.50;99.90;;;;;;6286410;22;20011;-77
2023/06/01 00:09:07;;;;;;;1999.90;999.90;;;12.50;99.90;;;;;;6314525;22;20016;-77
2023/06/01 00:11:32;;;;;;;1999.90;999.90;;;12.50;99.90;;;;;;6314510;22;20000;-77
2023/06/01 00:13:58;;;;;;;1999.90;999.90;;;12.40;99.90;;;;;;6314661;22;20443;-77
2023/06/01 00:16:23;;;;;;;1999.90;999.90;;;12.40;99.90;;;;;;6314840;22;20010;-77
2023/06/01 00:18:52;;;;;;;1999.90;999.90;;;12.40;99.90;;;;;;6314726;22;20014;-78
2023/06/01 00:21:18;;;;;;;1999.90;999.90;;;12.40;99.90;;;;;;6289924;22;20004;-78
2023/06/01 00:23:44;;;;;;;1999.90;999.90;;;12.40;99.90;;;;;;6318489;22;20012;-78
2023/06/01 00:26:10;;;;;;;1999.90;999.90;;;12.40;99.90;;;;;;6319237;22;20007;-78
2023/06/01 00:28:36;;;;;;;1999.90;999.90;;;12.30;99.90;;;;;;6318362;22;20070;-78
2023/06/01 00:31:02;;;;;;;1999.90;999.90;;;12.30;99.90;;;;;;6318995;22;20010;-77
2023/06/01 00:33:27;;;;;;;1999.90;999.90;;;12.30;99.90;;;;;;6319735;22;20434;-78
2023/06/01 00:35:53;;;;;;;1999.90;999.90;;;12.30;99.90;;;;;;6318401;22;20008;-78
2023/06/01 00:38:19;;;;;;;1999.90;999.90;;;12.30;99.90;;;;;;6318158;22;20145;-78
2023/06/01 00:40:45;;;;;;;1999.90;999.90;;;12.30;99.90;;;;;;6290151;22;20014;-78
2023/06/01 00:43:11;;;;;;;1999.90;999.90;;;12.30;99.90;;;;;;6317695;22;20000;-78
2023/06/01 00:45:39;;;;;;;1999.90;999.90;;;12.20;99.90;;;;;;6318681;22;20011;-78
2023/06/01 00:48:05;;;;;;;1999.90;999.90;;;12.20;99.90;;;;;;6317825;22;20000;-78
2023/06/01 00:50:31;;;;;;;1999.90;999.90;;;12.20;99.90;;;;;;6318038;22;20493;-78
2023/06/01 00:52:59;;;;;;;1999.90;999.90;;;12.20;99.90;;;;;;6290328;22;20061;-78
2023/06/01 00:55:27;;;;;;;1999.90;999.90;;;12.10;99.90;;;;;;6318834;22;20007;-78
2023/06/01 00:57:54;;;;;;;1999.90;999.90;;;12.20;99.90;;;;;;6319308;22;20423;-78
2023/06/01 01:00:20;;;;;;;1999.90;999.90;;;12.10;99.90;;;;;;6291055;22;20008;-78
2023/06/01 01:02:49;;;;;;;1999.90;999.90;;;12.20;99.90;;;;;;6318264;22;20488;-78
2023/06/01 01:05:16;;;;;;;1999.90;999.90;;;12.20;99.90;;;;;;6318043;22;20007;-78
2023/06/01 01:07:59;;;;;;;1999.90;999.90;;;12.10;99.90;;;;;;6318450;22;20015;-78
2023/06/01 01:10:32;;;;;;;1999.90;999.90;;;12.20;99.90;;;;;;6317612;22;20440;-77
2023/06/01 01:13:11;;;;;;;1999.90;999.90;;;12.10;99.90;;;;;;6318287;22;20000;-77
2023/06/01 01:15:42;;;;;;;1999.90;999.90;;;12.10;99.90;;;;;;6290776;22;20018;-77
2023/06/01 01:18:19;;;;;;;1999.90;999.90;;;12.10;99.90;;;;;;6318256;22;20008;-78
2023/06/01 01:20:51;;;;;;;1999.90;999.90;;;12.00;99.90;;;;;;6343087;22;20016;-77
2023/06/01 01:23:54;;;;;;;1999.90;999.90;;;12.00;99.90;;;;;;6318715;22;20070;-78
2023/06/01 01:26:43;;;;;;;1999.90;999.90;;;12.00;99.90;;;;;;6319148;22;20007;-77
2023/06/01 01:29:15;;;;;;;1999.90;999.90;;;11.90;99.90;;;;;;6242739;22;20000;-77
2023/06/01 01:31:42;;;;;;;1999.90;999.90;;;11.90;99.90;;;;;;6319066;22;20007;-77
2023/06/01 01:34:08;;;;;;;1999.90;999.90;;;11.90;99.90;;;;;;6318886;22;20004;-77
2023/06/01 01:36:35;;;;;;;1999.90;999.90;;;11.90;99.90;;;;;;6319577;22;20450;-77
2023/06/01 01:39:01;;;;;;;1999.90;999.90;;;12.00;99.90;;;;;;6317636;22;20011;-78
2023/06/01 01:41:27;;;;;;;1999.90;999.90;;;12.00;99.90;;;;;;6316538;22;20444;-77
2023/06/01 01:43:53;;;;;;;1999.90;999.90;;;12.00;99.90;;;;;;6317579;22;20008;-77
2023/06/01 01:46:30;;;;;;;1999.90;999.90;;;12.00;99.90;;;;;;6318345;22;20003;-77
2023/06/01 01:49:17;;;;;;;1999.90;999.90;;;11.90;99.90;;;;;;6316584;22;20016;-77
2023/06/01 01:52:06;;;;;;;1999.90;999.90;;;11.90;99.90;;;;;;6289305;22;20061;-77
2023/06/01 01:54:34;;;;;;;1999.90;999.90;;;11.80;99.90;;;;;;6289178;22;20007;-77
2023/06/01 01:57:00;;;;;;;1999.90;999.90;;;11.70;99.90;;;;;;6289109;22;20004;-77
2023/06/01 01:59:26;;;;;;;1999.90;999.90;;;11.60;99.90;;;;;;6288974;22;20011;-77
2023/06/01 02:01:52;;;;;;;1999.90;999.90;;;11.60;99.90;;;;;;6316766;22;20477;-77
2023/06/01 02:04:18;;;;;;;1999.90;999.90;;;11.60;99.90;;;;;;6316812;22;20082;-77
2023/06/01 02:06:43;;;;;;;1999.90;999.90;;;11.60;99.90;;;;;;6316889;22;20023;-77
2023/06/01 02:09:09;;;;;;;1999.90;999.90;;;11.60;99.90;;;;;;6316313;22;20015;-77
2023/06/01 02:11:35;;;;;;;1999.90;999.90;;;11.60;99.90;;;;;;6287897;22;19996;-77
2023/06/01 02:14:01;;;;;;;1999.90;999.90;;;11.50;99.90;;;;;;6315263;22;20011;-77
2023/06/01 02:16:26;;;;;;;1999.90;999.90;;;11.40;99.90;;;;;;6315414;22;20344;-77
2023/06/01 02:18:53;;;;;;;1999.90;999.90;;;11.40;99.90;;;;;;6315443;22;20062;-77
2023/06/01 02:21:18;;;;;;;1999.90;999.90;;;11.30;99.90;;;;;;6314970;22;20034;-77
2023/06/01 02:23:44;;;;;;;1999.90;999.90;;;11.30;99.90;;;;;;6315747;22;20011;-77
2023/06/01 02:26:10;;;;;;;1999.90;999.90;;;11.20;99.90;;;;;;6317156;22;20086;-77
2023/06/01 02:28:38;;;;;;;1999.90;999.90;;;11.20;99.90;;;;;;6314981;22;20126;-77
2023/06/01 02:31:04;;;;;;;1999.90;999.90;;;11.30;99.90;;;;;;6314061;22;19999;-77
2023/06/01 02:33:30;;;;;;;1999.90;999.90;;;11.30;99.90;;;;;;6286583;22;20019;-77
2023/06/01 02:35:55;;;;;;;1999.90;999.90;;;11.20;99.90;;;;;;6315224;22;20446;-77
2023/06/01 02:38:21;;;;;;;1999.90;999.90;;;11.20;99.90;;;;;;6314341;22;20050;-77
2023/06/01 02:40:46;;;;;;;1999.90;999.90;;;11.20;99.90;;;;;;6314401;22;20011;-77
2023/06/01 02:43:12;;;;;;;1999.90;999.90;;;11.30;99.90;;;;;;6314220;22;20040;-77
2023/06/01 02:45:38;;;;;;;1999.90;999.90;;;11.20;99.90;;;;;;6314676;22;20035;-77
2023/06/01 02:48:04;;;;;;;1999.90;999.90;;;11.30;99.90;;;;;;6286804;22;20016;-77
2023/06/01 02:50:29;;;;;;;1999.90;999.90;;;11.20;99.90;;;;;;6314203;22;20007;-77
2023/06/01 02:52:55;;;;;;;1999.90;999.90;;;11.20;99.90;;;;;;6314956;22;19999;-77
2023/06/01 02:55:20;;;;;;;1999.90;999.90;;;11.10;99.90;;;;;;6315846;22;20007;-77
2023/06/01 02:57:46;;;;;;;1999.90;999.90;;;11.10;99.90;;;;;;6315672;22;20389;-76
2023/06/01 03:00:18;;;;;;;1999.90;999.90;;;11.10;99.90;;;;;;6314876;22;20091;-76
2023/06/01 03:02:45;;;;;;;1999.90;999.90;;;11.10;99.90;;;;;;6314965;22;20003;-77
2023/06/01 03:05:14;;;;;;;1999.90;999.90;;;11.10;99.90;;;;;;6315332;22;20376;-77
2023/06/01 03:07:44;;;;;;;1999.90;999.90;;;11.10;99.90;;;;;;6287406;22;20020;-77
2023/06/01 03:10:10;;;;;;;1999.90;999.90;;;11.00;99.90;;;;;;6315261;22;20432;-77
2023/06/01 03:12:36;;;;;;;1999.90;999.90;;;11.00;99.90;;;;;;6315071;22;20003;-77
2023/06/01 03:15:02;;;;;;;1999.90;999.90;;;11.00;99.90;;;;;;6315165;22;20019;-77
2023/06/01 03:17:28;;;;;;;1999.90;999.90;;;11.10;99.90;;;;;;6315369;22;20062;-77
2023/06/01 03:19:53;;;;;;;1999.90;999.90;;;11.00;99.90;;;;;;6314776;22;20066;-77
2023/06/01 03:22:19;;;;;;;1999.90;999.90;;;11.10;99.90;;;;;;6314951;22;20427;-77
2023/06/01 03:24:49;;;;;;;1999.90;999.90;;;11.00;99.90;;;;;;6287815;22;20014;-77
2023/06/01 03:27:15;;;;;;;1999.90;999.90;;;11.00;99.90;;;;;;6315469;22;20481;-77
2023/06/01 03:29:41;;;;;;;1999.90;999.90;;;11.10;99.90;;;;;;6314733;22;20517;-77
2023/06/01 03:32:07;;;;;;;1999.90;999.90;;;11.10;99.90;;;;;;6314426;22;20028;-77
2023/06/01 03:34:36;;;;;;;1999.90;999.90;;;11.10;99.90;;;;;;6315193;22;20011;-77
2023/06/01 03:37:03;;;;;;;1999.90;999.90;;;11.10;99.90;;;;;;6315158;22;20011;-77
2023/06/01 03:39:29;;;;;;;1999.90;999.90;;;11.20;99.90;;;;;;6316513;22;20010;-77
2023/06/01 03:41:55;;;;;;;1999.90;999.90;;;11.20;99.90;;;;;;6288601;22;20011;-77
2023/06/01 03:44:20;;;;;;;1999.90;999.90;;;11.20;99.90;;;;;;6315392;22;20004;-77
2023/06/01 03:46:46;;;;;;;1999.90;999.90;;;11.20;99.90;;;;;;6315055;22;20003;-77
2023/06/01 03:49:12;;;;;;;1999.90;999.90;;;11.20;99.90;;;;;;6287203;22;20007;-77
2023/06/01 03:51:38;;;;;;;1999.90;999.90;;;11.20;99.90;;;;;;6314346;22;20007;-77
2023/06/01 03:54:03;;;;;;;1999.90;999.90;;;11.20;99.90;;;;;;6314875;22;20027;-77
2023/06/01 03:56:29;;;;;;;1999.90;999.90;;;11.30;99.90;;;;;;6315017;22;20003;-77
2023/06/01 03:58:55;;;;;;;1999.90;999.90;;;11.30;99.90;;;;;;6315129;22;20014;-77
2023/06/01 04:01:22;;;;;;;1999.90;999.90;;;11.30;99.90;;;;;;6314205;22;19999;-77
2023/06/01 04:03:48;;;;;;;1999.90;999.90;;;11.30;99.90;;;;;;6315431;22;20073;-77
2023/06/01 04:06:17;;;;;;;1999.90;999.90;;;11.30;99.90;;;;;;6315259;22;20008;-77
2023/06/01 04:08:48;;;;;;;1999.90;999.90;;;11.30;99.90;;;;;;6315287;22;20015;-77
2023/06/01 04:11:17;;;;;;;1999.90;999.90;;;11.30;99.90;;;;;;6314964;22;20485;-77
2023/06/01 04:13:46;;;;;;;1999.90;999.90;;;11.40;99.90;;;;;;6315426;22;20003;-77
2023/06/01 04:16:11;;;;;;;1999.90;999.90;;;11.40;99.90;;;;;;6287368;22;20426;-77
2023/06/01 04:18:37;;;;;;;1999.90;999.90;;;11.50;99.90;;;;;;6315168;22;20011;-77
2023/06/01 04:21:03;;;;;;;1999.90;999.90;;;11.50;99.90;;;;;;6286780;22;20395;-77
2023/06/01 04:23:28;;;;;;;1999.90;999.90;;;11.50;99.90;;;;;;6315526;22;20074;-77
2023/06/01 04:25:58;;;;;;;1999.90;999.90;;;11.50;99.90;;;;;;6315226;22;20011;-77
2023/06/01 04:28:24;;;;;;;1999.90;999.90;;;11.50;99.90;;;;;;6315395;22;20616;-77
2023/06/01 04:30:51;;;;;;;1999.90;999.90;;;11.50;99.90;;;;;;6314073;22;20020;-76
2023/06/01 04:33:17;;;;;;;1999.90;999.90;;;11.60;99.90;;;;;;6314534;22;20004;-77
2023/06/01 04:35:43;;;;;;;1999.90;999.90;;;11.50;99.90;;;;;;6315157;22;20039;-77
2023/06/01 04:38:08;;;;;;;1999.90;999.90;;;11.60;99.90;;;;;;6316208;22;20006;-77
2023/06/01 04:40:34;;;;;;;1999.90;999.90;;;11.60;99.90;;;;;;6316283;22;20038;-77
2023/06/01 04:43:02;;;;;;;1999.90;999.90;;;11.80;99.90;;;;;;6315776;22;20339;-77
2023/06/01 04:45:33;;;;;;;1999.90;999.90;;;11.80;99.90;;;;;;6315695;22;20012;-77
2023/06/01 04:47:59;;;;;;;1999.90;999.90;;;11.90;99.90;;;;;;6319343;22;20003;-77
2023/06/01 04:50:24;;;;;;;1999.90;999.90;;;12.00;99.90;;;;;;6316873;22;20016;-77
2023/06/01 04:52:51;;;;;;;1999.90;999.90;;;12.00;99.90;;;;;;6315188;22;20000;-77
2023/06/01 04:55:17;;;;;;;1999.90;999.90;;;12.00;99.90;;;;;;6315242;22;20008;-77
2023/06/01 04:57:43;;;;;;;1999.90;999.90;;;12.10;99.90;;;;;;6315832;22;20343;-77
2023/06/01 05:00:13;;;;;;;1999.90;999.90;;;12.20;99.90;;;;;;6315594;22;20035;-77
2023/06/01 05:02:43;;;;;;;1999.90;999.90;;;12.20;99.90;;;;;;6315481;22;19999;-77
2023/06/01 05:05:09;;;;;;;1999.90;999.90;;;12.40;99.90;;;;;;6288629;22;20012;-77
2023/06/01 05:07:39;;;;;;;1999.90;999.90;;;12.50;99.90;;;;;;6316080;22;20079;-77
2023/06/01 05:10:06;;;;;;;1999.90;999.90;;;12.70;99.90;;;;;;6316146;22;20039;-77
2023/06/01 05:12:32;;;;;;;1999.90;999.90;;;12.80;99.90;;;;;;6316781;22;20069;-77
2023/06/01 05:14:59;;;;;;;1999.90;999.90;;;13.00;99.90;;;;;;6288348;22;20012;-78
2023/06/01 05:17:25;;;;;;;1999.90;999.90;;;13.10;99.90;;;;;;6317980;22;20004;-77
2023/06/01 05:19:51;;;;;;;1999.90;999.90;;;13.20;99.90;;;;;;6289363;22;20444;-77
2023/06/01 05:22:16;;;;;;;1999.90;999.90;;;13.40;99.90;;;;;;6317307;22;20000;-77
2023/06/01 05:24:42;;;;;;;1999.90;999.90;;;13.50;99.90;;;;;;6317158;22;20015;-77
2023/06/01 05:27:08;;;;;;;1999.90;999.90;;;13.60;99.90;;;;;;6317301;22;20435;-77
2023/06/01 05:29:33;;;;;;;1999.90;999.90;;;13.70;99.90;;;;;;6317306;22;20463;-77
2023/06/01 05:31:59;;;;;;;1999.90;999.90;;;13.80;99.90;;;;;;6316877;22;20000;-77
2023/06/01 05:34:24;;;;;;;1999.90;999.90;;;13.90;99.90;;;;;;6316628;22;20011;-77
2023/06/01 05:36:50;;;;;;;1999.90;999.90;;;14.10;99.90;;;;;;6317378;22;20033;-77
2023/06/01 05:39:15;;;;;;;1999.90;999.90;;;14.20;99.90;;;;;;6318350;22;20035;-77
2023/06/01 05:41:41;;;;;;;1999.90;999.90;;;14.30;99.80;;;;;;6317928;22;20486;-77
2023/06/01 05:44:07;;;;;;;1999.90;999.90;;;14.40;99.90;;;;;;6321412;22;20094;-77
2023/06/01 05:46:33;;;;;;;1999.90;999.90;;;14.50;99.40;;;;;;6297683;22;20057;-78
2023/06/01 05:48:58;;;;;;;1999.90;999.90;;;14.60;99.00;;;;;;6329331;22;20008;-78
2023/06/01 05:51:24;;;;;;;1999.90;999.90;;;14.70;99.10;;;;;;6318175;22;20038;-79
2023/06/01 05:53:49;;;;;;;1999.90;999.90;;;14.80;98.80;;;;;;6290565;22;20011;-79
2023/06/01 05:56:16;;;;;;;1999.90;999.90;;;14.90;98.80;;;;;;6318141;22;20491;-78
2023/06/01 05:58:42;;;;;;;1999.90;999.90;;;15.00;98.20;;;;;;6318298;22;20050;-78
2023/06/01 06:01:09;;;;;;;1999.90;999.90;;;15.20;98.00;;;;;;6316804;22;20406;-78
2023/06/01 06:03:34;;;;;;;1999.90;999.90;;;15.20;97.40;;;;;;6290328;22;20066;-79
2023/06/01 06:06:00;;;;;;;1999.90;999.90;;;15.30;97.60;;;;;;6317509;22;20012;-79
2023/06/01 06:08:27;;;;;;;1999.90;999.90;;;15.40;97.60;;;;;;6320598;22;20011;-78
2023/06/01 06:10:52;;;;;;;1999.90;999.90;;;15.50;97.30;;;;;;6288382;22;20521;-78
2023/06/01 06:13:18;;;;;;;1999.90;999.90;;;15.60;96.90;;;;;;6321729;22;20035;-78
2023/06/01 06:15:43;;;;;;;1999.90;999.90;;;15.60;97.20;;;;;;6294584;22;20062;-78
2023/06/01 06:18:09;;;;;;;1999.90;999.90;;;15.70;96.60;;;;;;6294909;22;20012;-79
2023/06/01 06:20:34;;;;;;;1999.90;999.90;;;15.80;96.40;;;;;;6291404;22;20043;-78
2023/06/01 06:23:00;;;;;;;1999.90;999.90;;;15.90;96.30;;;;;;6314443;22;20062;-77
2023/06/01 06:25:25;;;;;;;1999.90;999.90;;;16.00;96.40;;;;;;6338677;22;20348;-78
2023/06/01 06:27:51;;;;;;;1999.90;999.90;;;16.20;96.20;;;;;;6286512;22;20007;-77
2023/06/01 06:30:17;;;;;;;1999.90;999.90;;;16.20;95.80;;;;;;6313508;22;20011;-78
2023/06/01 06:32:42;;;;;;;1999.90;999.90;;;16.30;95.70;;;;;;6286023;22;20018;-79
2023/06/01 06:35:12;;;;;;;1999.90;999.90;;;16.40;95.70;;;;;;6286475;22;20004;-78
2023/06/01 06:37:41;;;;;;;1999.90;999.90;;;16.60;95.70;;;;;;6313631;22;20023;-78
2023/06/01 06:40:07;;;;;;;1999.90;999.90;;;16.70;95.10;;;;;;6285759;22;20008;-79
2023/06/01 06:42:33;;;;;;;1999.90;999.90;;;16.70;94.90;;;;;;6313182;22;20035;-78
2023/06/01 06:44:58;;;;;;;1999.90;999.90;;;16.80;94.70;;;;;;6313329;22;20448;-79
2023/06/01 06:47:24;;;;;;;1999.90;999.90;;;17.00;95.00;;;;;;6285704;22;20000;-78
2023/06/01 06:49:51;;;;;;;1999.90;999.90;;;17.10;94.50;;;;;;6313419;22;20065;-78
2023/06/01 06:52:16;;;;;;;1999.90;999.90;;;17.30;94.50;;;;;;6285372;22;20018;-78
2023/06/01 06:54:42;;;;;;;1999.90;999.90;;;17.50;94.40;;;;;;6313893;22;20038;-79
2023/06/01 06:57:08;;;;;;;1999.90;999.90;;;17.70;93.90;;;;;;6314785;22;20815;-80
2023/06/01 06:59:33;;;;;;;1999.90;999.90;;;17.90;92.90;;;;;;6339217;22;20008;-79
2023/06/01 07:01:59;;;;;;;1999.90;999.90;;;18.00;93.20;;;;;;6315027;22;20447;-79
2023/06/01 07:04:25;;;;;;;1999.90;999.90;;;18.30;92.20;;;;;;6339396;22;20039;-77
2023/06/01 07:06:51;;;;;;;1999.90;999.90;;;18.40;91.90;;;;;;6313752;22;20011;-78
2023/06/01 07:09:17;;;;;;;1999.90;999.90;;;18.60;91.90;;;;;;6313452;22;20074;-77
2023/06/01 07:11:42;;;;;;;1999.90;999.90;;;18.80;91.80;;;;;;6313138;22;20008;-78
2023/06/01 07:14:08;;;;;;;1999.90;999.90;;;19.00;91.60;;;;;;6313724;22;20010;-78
2023/06/01 07:16:34;;;;;;;1999.90;999.90;;;19.30;91.20;;;;;;6313577;22;20038;-78
2023/06/01 07:18:59;;;;;;;1999.90;999.90;;;19.20;91.50;;;;;;6287111;22;20008;-77
2023/06/01 07:21:25;;;;;;;1999.90;999.90;;;19.40;91.80;;;;;;6312905;22;20494;-76
2023/06/01 07:23:50;;;;;;;1999.90;999.90;;;19.50;91.10;;;;;;6285981;22;20004;-77
2023/06/01 07:26:16;;;;;;;1999.90;999.90;;;19.70;90.70;;;;;;6313216;22;20004;-76
2023/06/01 07:28:42;;;;;;;1999.90;999.90;;;19.90;90.30;;;;;;6313314;22;20137;-76
2023/06/01 07:31:08;;;;;;;1999.90;999.90;;;20.00;88.90;;;;;;6313107;22;20008;-77
2023/06/01 07:33:35;;;;;;;1999.90;999.90;;;20.20;87.50;;;;;;6313616;22;20022;-76
2023/06/01 07:36:01;;;;;;;1999.90;999.90;;;20.50;87.10;;;;;;6312580;22;20387;-76
2023/06/01 07:38:27;;;;;;;1999.90;999.90;;;20.80;86.50;;;;;;6286241;22;20027;-76
2023/06/01 07:40:52;;;;;;;1999.90;999.90;;;21.00;85.50;;;;;;6314535;22;20458;-76
2023/06/01 07:43:18;;;;;;;1999.90;999.90;;;21.10;84.10;;;;;;6314468;22;20000;-76
2023/06/01 07:45:43;;;;;;;1999.90;999.90;;;21.10;85.30;;;;;;6314984;22;20007;-76
2023/06/01 07:48:09;;;;;;;1999.90;999.90;;;21.30;84.40;;;;;;6314885;22;20008;-76
2023/06/01 07:50:34;;;;;;;1999.90;999.90;;;21.40;84.50;;;;;;6314251;22;20482;-76
2023/06/01 07:53:00;;;;;;;1999.90;999.90;;;21.40;85.30;;;;;;6314271;22;20018;-76
2023/06/01 07:55:25;;;;;;;1999.90;999.90;;;21.60;83.50;;;;;;6314072;22;20070;-76
2023/06/01 07:57:52;;;;;;;1999.90;999.90;;;21.80;82.10;;;;;;6314620;22;20004;-76
2023/06/01 08:00:18;;;;;;;1999.90;999.90;;;21.90;81.40;;;;;;6314128;22;20012;-76
2023/06/01 08:02:44;;;;;;;1999.90;999.90;;;22.10;81.50;;;;;;6313671;22;20000;-76
2023/06/01 08:05:11;;;;;;;1999.90;999.90;;;22.40;79.40;;;;;;6314707;22;20057;-76
2023/06/01 08:07:37;;;;;;;1999.90;999.90;;;22.50;80.00;;;;;;6314718;22;20501;-76
2023/06/01 08:10:05;;;;;;;1999.90;999.90;;;22.40;80.80;;;;;;6314557;22;20130;-76
2023/06/01 08:12:31;;;;;;;1999.90;999.90;;;22.60;79.30;;;;;;6313922;22;20006;-76
2023/06/01 08:14:57;;;;;;;1999.90;999.90;;;22.80;79.00;;;;;;6314855;22;20435;-76
2023/06/01 08:17:23;;;;;;;1999.90;999.90;;;23.10;77.70;;;;;;6314848;22;20053;-76
2023/06/01 08:19:49;;;;;;;1999.90;999.90;;;23.20;77.50;;;;;;6286876;22;20015;-76
2023/06/01 08:22:16;;;;;;;1999.90;999.90;;;23.40;78.30;;;;;;6314457;22;20116;-76
2023/06/01 08:24:42;;;;;;;1999.90;999.90;;;23.50;76.50;;;;;;6314561;22;20004;-76
2023/06/01 08:27:18;;;;;;;1999.90;999.90;;;23.50;74.90;;;;;;6314738;22;20050;-79
2023/06/01 08:29:48;;;;;;;1999.90;999.90;;;23.60;75.20;;;;;;6286751;22;20022;-76
2023/06/01 08:32:15;;;;;;;1999.90;999.90;;;23.80;75.00;;;;;;6313982;22;20004;-77
2023/06/01 08:34:42;;;;;;;1999.90;999.90;;;23.60;76.00;;;;;;6314746;22;20010;-76
2023/06/01 08:37:07;;;;;;;1999.90;999.90;;;23.70;75.50;;;;;;6314581;22;20056;-76
2023/06/01 08:39:33;;;;;;;1999.90;999.90;;;24.10;74.60;;;;;;6314324;22;20539;-76
2023/06/01 08:42:11;;;;;;;1999.90;999.90;;;24.00;76.70;;;;;;6312031;22;20348;-80
2023/06/01 08:44:40;;;;;;;1999.90;999.90;;;23.90;77.10;;;;;;6314390;22;20011;-76
2023/06/01 08:47:06;;;;;;;1999.90;999.90;;;23.90;76.00;;;;;;6314615;22;20011;-76
2023/06/01 08:49:34;;;;;;;1999.90;999.90;;;24.20;73.70;;;;;;6313144;22;20086;-76
2023/06/01 08:52:04;;;;;;;1999.90;999.90;;;24.30;74.20;;;;;;6314092;22;20031;-75
2023/06/01 08:54:30;;;;;;;1999.90;999.90;;;24.40;74.60;;;;;;6312807;22;20010;-76
2023/06/01 08:56:59;;;;;;;1999.90;999.90;;;24.70;70.00;;;;;;6314091;22;20106;-76
2023/06/01 08:59:25;;;;;;;1999.90;999.90;;;24.90;76.50;;;;;;6313849;22;20447;-76
2023/06/01 09:01:52;;;;;;;1999.90;999.90;;;25.30;69.70;;;;;;6313999;22;20083;-75
2023/06/01 09:04:18;;;;;;;1999.90;999.90;;;25.30;70.30;;;;;;6314411;22;20019;-78
2023/06/01 09:06:43;;;;;;;1999.90;999.90;;;25.50;70.90;;;;;;6314439;22;20000;-76
2023/06/01 09:09:12;;;;;;;1999.90;999.90;;;25.40;69.60;;;;;;6314017;22;20011;-77
2023/06/01 09:11:37;;;;;;;1999.90;999.90;;;25.70;71.50;;;;;;6313854;22;20012;-77
2023/06/01 09:14:22;;;;;;;1999.90;999.90;;;25.90;69.70;;;;;;6314360;22;20374;-75
2023/06/01 09:16:49;;;;;;;1999.90;999.90;;;25.90;67.50;;;;;;6286852;22;20034;-76
2023/06/01 09:19:15;;;;;;;1999.90;999.90;;;26.10;66.20;;;;;;6314053;22;20011;-76
2023/06/01 09:21:59;;;;;;;1999.90;999.90;;;26.00;66.90;;;;;;6313779;22;20004;-76
2023/06/01 09:24:25;;;;;;;1999.90;999.90;;;26.00;68.20;;;;;;6314438;22;20054;-75
2023/06/01 09:26:58;;;;;;;1999.90;999.90;;;26.20;67.40;;;;;;6314668;22;20078;-76
2023/06/01 09:29:23;;;;;;;1999.90;999.90;;;26.40;63.20;;;;;;6314156;22;20461;-75
2023/06/01 09:31:49;;;;;;;1999.90;999.90;;;26.40;64.70;;;;;;6286357;22;20004;-75
2023/06/01 09:34:19;;;;;;;1999.90;999.90;;;26.50;62.90;;;;;;6314132;22;20337;-75
2023/06/01 09:36:52;;;;;;;1999.90;999.90;;;26.20;65.30;;;;;;6314358;22;20010;-76
2023/06/01 09:39:20;;;;;;;1999.90;999.90;;;26.30;63.50;;;;;;6286265;22;20470;-75
2023/06/01 09:41:46;;;;;;;1999.90;999.90;;;26.70;65.90;;;;;;6314657;22;20014;-77
2023/06/01 09:44:13;;;;;;;1999.90;999.90;;;27.00;62.60;;;;;;6314692;22;20070;-78
2023/06/01 09:46:50;;;;;;;1999.90;999.90;;;27.20;63.40;;;;;;6286801;22;20015;-76
2023/06/01 09:49:44;;;;;;;1999.90;999.90;;;27.40;62.90;;;;;;6314092;22;20019;-78
2023/06/01 09:52:17;;;;;;;1999.90;999.90;;;27.30;64.60;;;;;;6293433;22;20015;-79
2023/06/01 09:54:46;;;;;;;1999.90;999.90;;;27.40;61.50;;;;;;6314403;22;20440;-78
2023/06/01 09:57:12;;;;;;;1999.90;999.90;;;27.30;62.40;;;;;;6314199;22;20007;-77
2023/06/01 09:59:43;;;;;;;1999.90;999.90;;;27.40;60.40;;;;;;6314205;22;20011;-76
2023/06/01 10:02:18;;;;;;;1999.90;999.90;;;27.30;61.70;;;;;;6314089;22;20432;-77
2023/06/01 10:04:57;;;;;;;1999.90;999.90;;;27.40;60.20;;;;;;6314307;22;20023;-77
2023/06/01 10:07:25;;;;;;;1999.90;999.90;;;27.50;61.60;;;;;;6314394;22;20041;-80
2023/06/01 10:09:55;;;;;;;1999.90;999.90;;;27.50;59.00;;;;;;6313913;22;20100;-77
2023/06/01 10:12:22;;;;;;;1999.90;999.90;;;27.60;60.30;;;;;;6314355;22;20534;-76
2023/06/01 10:14:48;;;;;;;1999.90;999.90;;;27.60;60.30;;;;;;6314292;22;20135;-76
2023/06/01 10:17:16;;;;;;;1999.90;999.90;;;27.80;60.60;;;;;;6314171;22;20035;-77
2023/06/01 10:19:42;;;;;;;1999.90;999.90;;;27.90;60.30;;;;;;6313654;22;20019;-76
2023/06/01 10:22:08;;;;;;;1999.90;999.90;;;27.90;57.00;;;;;;6314038;22;20039;-77
2023/06/01 10:24:40;;;;;;;1999.90;999.90;;;28.00;55.10;;;;;;6314442;22;20423;-77
2023/06/01 10:27:37;;;;;;;1999.90;999.90;;;28.00;56.10;;;;;;6286981;22;20011;-77
2023/06/01 10:30:04;;;;;;;1999.90;999.90;;;28.30;56.70;;;;;;6312216;22;20099;-80
2023/06/01 10:32:44;;;;;;;1999.90;999.90;;;28.10;53.00;;;;;;6313702;22;20004;-77
2023/06/01 10:35:32;;;;;;;1999.90;999.90;;;28.20;51.90;;;;;;6313980;22;20083;-76
2023/06/01 10:38:06;;;;;;;1999.90;999.90;;;28.30;53.50;;;;;;6314227;22;20003;-77
2023/06/01 10:40:46;;;;;;;1999.90;999.90;;;28.70;57.80;;;;;;6286255;22;20098;-77
2023/06/01 10:43:36;;;;;;;1999.90;999.90;;;28.60;51.50;;;;;;6313897;22;20071;-77
2023/06/01 10:46:02;;;;;;;1999.90;999.90;;;29.00;50.80;;;;;;6314134;22;20027;-77
2023/06/01 10:48:56;;;;;;;1999.90;999.90;;;29.20;48.40;;;;;;6313831;22;20035;-77
2023/06/01 10:51:25;;;;;;;1999.90;999.90;;;29.10;52.40;;;;;;6285749;22;20023;-77
2023/06/01 10:53:54;;;;;;;1999.90;999.90;;;28.60;53.60;;;;;;6313769;22;20000;-78
2023/06/01 10:56:25;;;;;;;1999.90;999.90;;;28.50;55.10;;;;;;6314067;22;20035;-77
2023/06/01 10:59:07;;;;;;;1999.90;999.90;;;28.50;51.60;;;;;;6313947;22;20007;-78
2023/06/01 11:01:33;;;;;;;1999.90;999.90;;;28.90;53.10;;;;;;6312996;22;20008;-78
2023/06/01 11:03:59;;;;;;;1999.90;999.90;;;28.90;55.40;;;;;;6313906;22;20004;-77
2023/06/01 11:06:31;;;;;;;1999.90;999.90;;;29.20;53.80;;;;;;6286195;22;20351;-78
2023/06/01 11:08:58;;;;;;;1999.90;999.90;;;29.70;51.40;;;;;;6317256;22;20000;-79
2023/06/01 11:11:55;;;;;;;1999.90;999.90;;;29.50;51.40;;;;;;6317072;22;20019;-78
2023/06/01 11:14:26;;;;;;;1999.90;999.90;;;29.60;51.80;;;;;;6319287;22;20106;-78
2023/06/01 11:16:54;;;;;;;1999.90;999.90;;;29.40;51.10;;;;;;6319187;22;20352;-79
2023/06/01 11:19:24;;;;;;;1999.90;999.90;;;29.50;51.60;;;;;;6319514;22;20433;-78
2023/06/01 11:22:00;;;;;;;1999.90;999.90;;;29.80;52.20;;;;;;6318894;22;20015;-79
2023/06/01 11:24:34;;;;;;;1999.90;999.90;;;29.30;51.70;;;;;;6319507;22;20000;-79
2023/06/01 11:27:06;;;;;;;1999.90;999.90;;;29.20;50.50;;;;;;6319377;22;20010;-79
2023/06/01 11:29:32;;;;;;;1999.90;999.90;;;29.00;51.70;;;;;;6319464;22;20103;-79
2023/06/01 11:31:59;;;;;;;1999.90;999.90;;;29.10;51.90;;;;;;6316097;22;19991;-81
2023/06/01 11:34:41;;;;;;;1999.90;999.90;;;29.30;53.00;;;;;;6319332;22;20444;-81
2023/06/01 11:37:17;;;;;;;1999.90;999.90;;;29.80;50.70;;;;;;6344387;22;20007;-80
2023/06/01 11:39:43;;;;;;;1999.90;999.90;;;30.00;50.90;;;;;;6290898;22;20007;-79
2023/06/01 11:42:10;;;;;;;1999.90;999.90;;;29.70;48.90;;;;;;6317288;22;20016;-79
2023/06/01 11:44:38;;;;;;;1999.90;999.90;;;29.70;49.60;;;;;;6291578;22;20000;-80
2023/06/01 11:47:05;;;;;;;1999.90;999.90;;;30.00;51.80;;;;;;6320164;22;20054;-80
2023/06/01 11:49:40;;;;;;;1999.90;999.90;;;30.30;50.60;;;;;;6297451;22;20012;-79
2023/06/01 11:52:09;;;;;;;1999.90;999.90;;;30.60;54.30;;;;;;6332755;22;20000;-77
2023/06/01 11:54:36;;;;;;;1999.90;999.90;;;30.80;49.30;;;;;;6289810;22;20015;-78
2023/06/01 11:57:03;;;;;;;1999.90;999.90;;;30.60;49.50;;;;;;6319056;22;20010;-77
2023/06/01 11:59:37;;;;;;;1999.90;999.90;;;30.30;48.00;;;;;;6294020;22;20003;-83
2023/06/01 12:02:03;;;;;;;1999.90;999.90;;;30.30;49.90;;;;;;6322850;22;20062;-80
2023/06/01 12:04:28;;;;;;;1999.90;999.90;;;30.40;50.60;;;;;;6341678;22;20015;-79